createdAt,value
2022-12-19T00:01:50.419Z,81.86
2022-12-19T00:06:53.611Z,81.69
2022-12-19T00:11:56.783Z,81.79
2022-12-19T00:16:59.836Z,81.61
2022-12-19T00:22:06.024Z,81.90
2022-12-19T00:27:11.436Z,82.36
2022-12-19T00:32:14.632Z,82.65
2022-12-19T00:37:19.885Z,82.87
2022-12-19T00:42:23.093Z,83.07
2022-12-19T00:47:26.203Z,83.11
2022-12-19T00:52:29.595Z,82.78
2022-12-19T00:57:35.381Z,82.57
2022-12-19T01:02:38.668Z,82.36
2022-12-19T01:07:42.413Z,82.24
2022-12-19T01:12:48.598Z,82.18
2022-12-19T01:17:51.911Z,82.58
2022-12-19T01:22:55.213Z,83.17
2022-12-19T01:27:58.343Z,83.58
2022-12-19T01:33:01.836Z,84.07
2022-12-19T01:38:08.025Z,84.01
2022-12-19T01:43:15.931Z,83.78
2022-12-19T01:48:33.177Z,83.39
2022-12-19T01:53:48.732Z,83.11
2022-12-19T01:59:05.114Z,82.76
2022-12-19T02:04:11.340Z,82.81
2022-12-19T02:09:15.055Z,82.64
2022-12-19T02:14:18.898Z,82.63
2022-12-19T02:19:53.531Z,82.79
2022-12-19T02:25:17.749Z,83.11
2022-12-19T02:31:16.527Z,83.29
2022-12-19T02:36:48.944Z,83.53
2022-12-19T02:41:58.716Z,83.94
2022-12-19T02:47:04.888Z,84.01
2022-12-19T02:52:34.221Z,84.04
2022-12-19T02:58:08.348Z,83.92
2022-12-19T03:03:35.593Z,83.57
2022-12-19T03:09:08.529Z,83.61
2022-12-19T03:14:19.996Z,83.69
2022-12-19T03:19:24.507Z,83.65
2022-12-19T03:24:28.845Z,83.32
2022-12-19T03:29:45.854Z,83.08
2022-12-19T03:34:59.808Z,82.85
2022-12-19T03:40:15.520Z,82.88
2022-12-19T03:45:54.746Z,82.76
2022-12-19T03:51:00.742Z,82.93
2022-12-19T03:56:17.777Z,83.00
2022-12-19T04:01:22.449Z,83.02
2022-12-19T04:06:31.944Z,82.72
2022-12-19T04:11:42.196Z,82.64
2022-12-19T04:17:18.328Z,82.33
2022-12-19T04:22:50.015Z,82.39
2022-12-19T04:28:02.435Z,82.34
2022-12-19T04:33:06.468Z,82.25
2022-12-19T04:38:11.411Z,82.23
2022-12-19T04:43:14.629Z,82.03
2022-12-19T04:48:17.828Z,82.40
2022-12-19T04:53:21.030Z,82.56
2022-12-19T04:58:24.139Z,82.43
2022-12-19T05:03:27.434Z,82.36
2022-12-19T05:08:30.858Z,82.46
2022-12-19T05:13:34.183Z,82.62
2022-12-19T05:18:39.282Z,82.64
2022-12-19T05:23:42.744Z,82.72
2022-12-19T05:28:45.876Z,82.73
2022-12-19T05:33:49.561Z,82.56
2022-12-19T05:38:52.873Z,82.45
2022-12-19T05:43:56.901Z,82.44
2022-12-19T05:49:00.024Z,82.49
2022-12-19T05:54:03.418Z,82.70
2022-12-19T05:59:06.645Z,82.89
2022-12-19T06:04:09.842Z,83.06
2022-12-19T06:09:12.944Z,83.48
2022-12-19T06:14:16.404Z,83.46
2022-12-19T06:19:21.887Z,83.46
2022-12-19T06:24:26.205Z,83.31
2022-12-19T06:29:29.269Z,83.28
2022-12-19T06:35:02.689Z,83.22
2022-12-19T06:39:56.463Z,83.27
2022-12-19T06:44:59.783Z,83.14
2022-12-19T06:50:03.285Z,83.25
2022-12-19T06:55:07.606Z,83.14
2022-12-19T07:00:15.450Z,83.14
2022-12-19T07:05:19.366Z,82.97
2022-12-19T07:10:22.584Z,82.97
2022-12-19T07:15:26.620Z,82.72
2022-12-19T07:20:32.022Z,82.57
2022-12-19T07:25:35.372Z,82.38
2022-12-19T07:30:38.679Z,82.35
2022-12-19T07:35:42.115Z,82.28
2022-12-19T07:40:45.512Z,82.14
2022-12-19T07:45:56.104Z,81.95
2022-12-19T07:50:59.291Z,81.66
2022-12-19T07:56:02.419Z,81.44
2022-12-19T08:01:06.685Z,81.29
2022-12-19T08:06:11.491Z,81.04
2022-12-19T08:11:27.638Z,80.76
2022-12-19T08:16:31.579Z,80.59
2022-12-19T08:21:34.843Z,80.33
2022-12-19T08:26:41.824Z,80.29
2022-12-19T08:31:48.211Z,79.93
2022-12-19T08:36:51.334Z,79.89
2022-12-19T08:41:54.934Z,79.54
2022-12-19T08:46:58.293Z,79.45
2022-12-19T08:52:01.662Z,79.11
2022-12-19T08:57:05.078Z,79.01
2022-12-19T09:02:10.959Z,78.65
2022-12-19T09:07:15.389Z,78.39
2022-12-19T09:12:19.953Z,78.31
2022-12-19T09:17:23.130Z,78.07
2022-12-19T09:22:27.778Z,77.86
2022-12-19T09:27:47.388Z,77.60
2022-12-19T09:32:56.005Z,77.39
2022-12-19T09:38:00.560Z,77.11
2022-12-19T09:43:21.294Z,76.99
2022-12-19T09:48:25.079Z,76.98
2022-12-19T09:53:38.455Z,76.80
2022-12-19T09:58:49.743Z,77.06
2022-12-19T10:04:19.573Z,77.31
2022-12-19T10:11:36.753Z,77.03
2022-12-19T10:15:43.354Z,76.89
2022-12-19T10:22:07.618Z,76.39
2022-12-19T10:27:04.532Z,76.10
2022-12-19T10:32:57.545Z,75.70
2022-12-19T10:38:52.017Z,75.35
2022-12-19T10:44:09.716Z,74.96
2022-12-19T10:49:20.082Z,74.72
2022-12-19T10:54:30.727Z,74.79
2022-12-19T10:59:36.427Z,74.72
2022-12-19T11:04:40.043Z,74.84
2022-12-19T11:09:50.621Z,74.70
2022-12-19T11:19:06.832Z,75.04
2022-12-19T11:29:39.999Z,74.72
2022-12-19T11:29:45.131Z,74.93
2022-12-19T11:37:35.966Z,74.00
2022-12-19T11:43:18.180Z,74.01
2022-12-19T11:48:30.916Z,74.26
2022-12-19T11:54:04.767Z,74.32
2022-12-19T11:59:36.686Z,74.17
2022-12-19T12:04:53.683Z,74.05
2022-12-19T12:15:44.839Z,73.86
2022-12-19T12:27:14.370Z,73.69
2022-12-19T12:31:18.864Z,73.90
2022-12-19T12:31:42.014Z,74.03
2022-12-19T12:35:40.507Z,74.05
2022-12-19T12:40:06.296Z,74.32
2022-12-19T12:45:31.690Z,74.24
2022-12-19T12:50:36.676Z,74.18
2022-12-19T12:55:42.151Z,74.21
2022-12-19T13:01:30.778Z,74.40
2022-12-19T13:06:39.801Z,74.53
2022-12-19T13:12:09.481Z,74.78
2022-12-19T13:17:32.853Z,75.08
2022-12-19T13:22:35.996Z,75.28
2022-12-19T13:27:41.123Z,75.40
2022-12-19T13:32:44.258Z,75.42
2022-12-19T13:40:01.729Z,75.43
2022-12-19T13:43:48.408Z,75.75
2022-12-19T13:48:58.852Z,76.03
2022-12-19T13:54:01.978Z,76.21
2022-12-19T13:59:05.918Z,76.54
2022-12-19T14:04:27.482Z,76.64
2022-12-19T14:11:28.833Z,76.81
2022-12-19T14:15:14.754Z,76.83
2022-12-19T14:22:01.464Z,77.12
2022-12-19T14:28:25.853Z,77.30
2022-12-19T14:31:19.759Z,77.31
2022-12-19T14:36:29.220Z,77.22
2022-12-19T14:42:04.866Z,77.19
2022-12-19T14:54:07.203Z,77.18
2022-12-19T14:54:27.815Z,77.28
2022-12-19T14:58:54.111Z,77.40
2022-12-19T15:04:50.972Z,77.48
2022-12-19T15:11:00.652Z,77.33
2022-12-19T15:15:36.321Z,77.25
2022-12-19T15:20:39.540Z,77.06
2022-12-19T15:26:03.281Z,77.01
2022-12-19T15:31:21.941Z,77.19
2022-12-19T15:36:25.204Z,77.28
2022-12-19T15:41:28.449Z,77.42
2022-12-19T15:46:32.858Z,77.39
2022-12-19T15:51:36.072Z,77.47
2022-12-19T15:56:46.839Z,77.51
2022-12-19T16:01:50.381Z,77.51
2022-12-19T16:06:53.680Z,77.34
2022-12-19T16:11:58.414Z,77.15
2022-12-19T16:17:01.643Z,77.11
2022-12-19T16:22:19.333Z,77.14
2022-12-19T16:27:30.849Z,77.22
2022-12-19T16:32:34.228Z,77.35
2022-12-19T16:37:37.500Z,77.31
2022-12-19T16:42:44.189Z,77.37
2022-12-19T16:47:48.578Z,77.33
2022-12-19T16:52:53.310Z,77.25
2022-12-19T16:57:56.988Z,77.08
2022-12-19T17:03:18.971Z,77.00
2022-12-19T17:08:22.987Z,77.01
2022-12-19T17:13:26.988Z,77.13
2022-12-19T17:18:41.846Z,77.22
2022-12-19T17:23:46.513Z,77.35
2022-12-19T17:28:49.697Z,77.49
2022-12-19T17:33:56.348Z,77.67
2022-12-19T17:39:00.464Z,77.75
2022-12-19T17:44:03.673Z,77.64
2022-12-19T17:49:13.116Z,77.52
2022-12-19T17:54:16.641Z,77.44
2022-12-19T17:59:21.229Z,77.62
2022-12-19T18:04:26.478Z,77.86
2022-12-19T18:09:29.733Z,77.89
2022-12-19T18:14:33.040Z,78.03
2022-12-19T18:19:36.384Z,78.14
2022-12-19T18:24:40.379Z,78.30
2022-12-19T18:29:43.503Z,78.42
2022-12-19T18:34:46.801Z,78.39
2022-12-19T18:39:49.934Z,78.19
2022-12-19T18:44:53.049Z,78.21
2022-12-19T18:49:56.640Z,78.28
2022-12-19T18:54:59.949Z,78.32
2022-12-19T19:00:04.386Z,78.49
2022-12-19T19:05:19.052Z,78.63
2022-12-19T19:10:29.973Z,78.89
2022-12-19T19:15:36.578Z,79.07
2022-12-19T19:20:43.407Z,79.19
2022-12-19T19:25:46.536Z,79.14
2022-12-19T19:30:52.558Z,79.04
2022-12-19T19:36:09.369Z,79.14
2022-12-19T19:41:14.901Z,79.33
2022-12-19T19:46:18.212Z,79.32
2022-12-19T19:51:22.021Z,79.45
2022-12-19T19:56:25.135Z,79.64
2022-12-19T20:01:28.810Z,79.91
2022-12-19T20:06:32.807Z,80.11
2022-12-19T20:11:36.137Z,80.25
2022-12-19T20:16:39.825Z,80.30
2022-12-19T20:21:44.057Z,80.19
2022-12-19T20:26:47.255Z,80.08
2022-12-19T20:31:50.478Z,80.15
2022-12-19T20:36:53.772Z,80.33
2022-12-19T20:41:57.002Z,80.58
2022-12-19T20:47:00.539Z,80.97
2022-12-19T20:52:04.017Z,81.44
2022-12-19T20:57:07.218Z,82.00
2022-12-19T21:02:12.006Z,82.43
2022-12-19T21:07:15.275Z,82.76
2022-12-19T21:12:18.487Z,82.94
2022-12-19T21:17:21.798Z,82.93
2022-12-19T21:22:25.723Z,83.01
2022-12-19T21:27:28.857Z,83.15
2022-12-19T21:32:32.037Z,83.40
2022-12-19T21:37:39.900Z,83.82
2022-12-19T21:42:47.974Z,84.25
2022-12-19T21:47:51.108Z,84.71
2022-12-19T21:52:55.958Z,85.06
2022-12-19T21:58:00.393Z,85.26
2022-12-19T22:03:18.829Z,85.44
2022-12-19T22:08:22.171Z,85.68
2022-12-19T22:13:26.288Z,86.87
2022-12-19T22:18:29.586Z,87.39
2022-12-19T22:23:33.713Z,87.61
2022-12-19T22:28:42.541Z,88.25
2022-12-19T22:33:47.279Z,88.50
2022-12-19T22:38:51.229Z,88.68
2022-12-19T22:43:55.803Z,88.13
2022-12-19T22:49:02.957Z,87.72
2022-12-19T22:54:07.288Z,87.51
2022-12-19T22:59:12.905Z,87.49
2022-12-19T23:04:17.901Z,87.68
2022-12-19T23:09:21.145Z,87.92
2022-12-19T23:14:24.232Z,88.33
2022-12-19T23:27:36.020Z,88.89
2022-12-19T23:32:39.757Z,89.52
2022-12-19T23:37:45.403Z,89.85
2022-12-19T23:42:48.589Z,90.17
2022-12-19T23:47:51.808Z,90.39
2022-12-19T23:52:55.213Z,90.69
2022-12-19T23:57:58.432Z,90.66
